Date,TemperatureHighF,TemperatureAvgF,TemperatureLowF,DewpointHighF,DewpointAvgF,DewpointLowF,HumidityHigh,HumidityAvg,HumidityLow,PressureMaxIn,PressureMinIn,WindSpeedMaxMPH,WindSpeedAvgMPH,GustSpeedMaxMPH,PrecipitationSumIn
2013-1-1,26,17,8,19,12,3,85,81,75,30.00,29.78,4,1,7,0.00
2013-1-2,34,27,15,26,21,8,85,76,65,30.00,29.76,6,2,14,0.00
2013-1-3,30,21,15,21,14,8,85,74,57,30.14,29.98,8,2,13,0.00
2013-1-4,41,22,9,16,10,1,77,64,34,29.99,29.81,5,1,9,0.00
2013-1-5,41,22,10,22,13,5,82,68,43,29.98,29.74,10,4,22,0.00
2013-1-6,44,25,13,24,16,7,80,67,40,30.02,29.73,8,3,14,0.00
2013-1-7,47,30,20,22,20,15,81,66,30,29.78,29.67,6,1,15,0.00
2013-1-8,45,29,14,30,21,9,86,74,51,29.91,29.55,5,1,8,1.56
2013-1-9,48,36,25,30,25,18,78,65,42,30.14,29.90,7,2,15,0.00
2013-1-10,39,36,34,34,28,21,94,74,51,30.01,29.38,7,3,17,0.02
2013-1-11,40,32,17,39,30,8,96,91,68,29.51,29.13,13,3,24,0.01
2013-1-12,17,12,7,10,2,-1,74,65,54,29.89,29.50,11,5,24,0.00
2013-1-13,19,11,4,3,-1,-4,74,60,39,30.04,29.86,6,2,12,0.00
2013-1-14,31,16,2,9,2,-5,72,57,32,30.14,30.02,7,1,9,0.00
2013-1-15,36,23,14,11,3,-15,75,49,15,30.04,29.71,8,1,11,0.00
2013-1-16,53,39,22,28,24,8,86,59,28,30.02,29.62,11,4,22,0.00
2013-1-17,47,32,21,32,26,18,89,79,49,30.18,29.94,4,1,6,0.00
2013-1-18,61,43,32,26,16,-4,76,42,10,29.94,29.63,6,2,10,0.00
2013-1-19,53,38,14,26,17,-1,71,46,28,30.11,29.62,11,4,17,0.00
2013-1-20,14,12,11,3,1,0,66,62,58,30.10,30.04,4,0,6,0.00
2013-1-22,27,18,13,9,6,4,76,60,40,30.06,29.91,6,2,11,0.00
2013-1-23,25,15,4,12,6,-4,79,68,54,30.24,29.87,8,3,12,0.00
2013-1-24,16,8,-3,1,-6,-12,72,53,34,30.26,29.85,8,2,16,0.00
2013-1-25,47,28,16,22,14,1,81,59,29,29.98,29.84,6,1,12,0.00
2013-1-26,54,32,14,24,16,9,82,57,23,29.98,29.68,10,3,23,0.00
2013-1-27,40,37,34,38,32,20,94,83,45,29.69,29.47,6,1,11,0.37
2013-1-28,38,33,28,37,32,27,97,95,92,29.60,29.39,6,0,13,0.02
2013-1-29,35,30,20,31,27,16,97,87,75,29.60,29.41,10,2,20,0.00
2013-1-30,21,16,6,18,9,-1,88,72,60,29.70,29.56,12,5,20,0.00
2013-1-31,6,2,-3,0,-9,-13,74,61,46,30.10,29.70,11,4,21,0.34